Kendall-Tamiami Executive, FL

12:27 AM EDT on August 28, 2014 (GMT -0400)
Miami International | Change Station
CLOSE
Current Station
Airport
Location: Miami,
Elevation: 13 ft
Nearby Weather Stations

Elev 13 ft 25.79 °N, 80.32 °W | Updated 34 minutes ago

Scattered Clouds
Scattered Clouds
84 °F
Feels Like 91 °F
N
9
Wind Variable Wind from ESE

Today
High -- | Low -- °F
--% Chance of Precip.
Yesterday
High -- | Low -- °F
Precip. -- in
7:00 AM 7:44 PM
Waxing Crescent, 6% visible
Pressure 30.00 in
Visibility 10.0 miles
Clouds Scattered Clouds 8000 ft
Heat Index 91 °F
Dew Point 74 °F
Humidity 72%
Rainfall 0.00 in
Snow Depth Not available.
UV 0 out of 12
Pollen 4.80 out of 12
PM2.5 Good
Flu Activity Not available.
METAR KMIA 280353Z 11008KT 10SM SCT080 29/23 A3000 RMK AO2 SLP159 T02890233 $

More Conditions Fewer Conditions

Pressure 30.00 in
Visibility 10.0 miles
Clouds Scattered Clouds 8000 ft
Heat Index 91 °F
Dew Point 74 °F
Humidity 72%
Rainfall 0.00 in
Snow Depth Not available.
UV 0 out of 12
Pollen 4.80 out of 12
PM2.5 Good
Flu Activity Not available.
METAR KMIA 280353Z 11008KT 10SM SCT080 29/23 A3000 RMK AO2 SLP159 T02890233 $

More Conditions Fewer Conditions

Nowcast | as of 12:23 am EDT on August 28, 2014

Showers and isolated thunderstorms will continue to move northward into the southern portions of Biscayne Bay and the southern tip of the South Florida peninsula. These showers will produce brief downpours...gusty winds to near 30 mph and occasional lightning strikes.

×

10-Day Weather Forecast

Almanac

Astronomy

Aug. 28, 2014 Rise Set
Actual Time 7:00 AM EDT 7:44 PM EDT
Civil Twilight 6:37 AM EDT 8:08 PM EDT
Nautical Twilight 6:09 AM EDT 8:35 PM EDT
Astronomical Twilight 5:41 AM EDT 9:04 PM EDT
Moon 9:30 AM EDT 9:31 PM EDT
Length of Visible Light 13h 31m
Length of Day
12h 44m
Tomorrow will be 1m 24s shorter.
Waxing Crescent, 6% of the Moon is Illuminated
Today
Waxing Crescent
Sep 2
First Quarter
Sep 8
Full
Sep 15
Last Quarter
Sep 24
New

Yesterday's Extremes

State Highs State Lows

Community

WunderPhotos

Upload Photos

1,747,898 photos uploaded!

Nearby

Air Quality

  Air Quality AQ Index Pollutant
Yesterday Good
PM2.5
Yesterday Good
OZONE
Current Good
PM2.5
Wednesday Good
OZONE
Wednesday Good
PM2.5
Thursday Good
OZONE
Thursday Good
PM2.5

Snow Depth

Station Depth Elevation
No new snow has been reported.

Earthquake Activity

City Distance Mag. Time & Date
No recent earthquake activity has been reported nearby.
Minimum magnitude displayed is 2.5.

Coastal Water Temperatures

Place Temperature
Virginia Key, FL 87.1 °F

Nearby Weather Stations